Cosco Aden — VRKF9 — position and weather

sailwx.info

Track history (hours):
 
Tides and Currents Weather Stations Pressure Air Temp Water Temp Dewpoint Dewpoint Depression Visibility Wind Speed Wind Dir Waves Ship Positions

Cosco Aden

Last reported at 2016-Apr-09 13:26 UTC. Time now 2016-May-05 12:27 UTC.
Position N 34°08' E 129°35'.
Warning: this ship's position is 25 days out of date.

Length 261 m; draft 12.6 m.

Type: Other ship. MMSI: 477765900.

Date/timePositionNaut miles runAvg speedWind from/ knotsBaromVisibWave heightAir tempDewpointWater temp
2016-Apr-09 13:26N 34°08' E 129°35'1516.6
2016-Apr-09 12:33N 33°58' E 129°23'1818.3
2016-Apr-09 11:33N 33°48' E 129°04'1818.2
2016-Apr-09 10:33N 33°38' E 128°46'1818.2
2016-Apr-09 09:33N 33°29' E 128°27'32918.3
2016-Apr-08 15:31N 30°32' E 122°59'1816.9
2016-Apr-08 14:27N 30°29' E 122°39'1415.0
2016-Apr-08 13:33N 30°32' E 122°23'1010.5
2016-Apr-08 12:33N 30°34' E 122°11'7 4.8
2016-Apr-08 11:04N 30°37' E 122°04'0 0.0
2016-Apr-08 10:04N 30°37' E 122°04'0 0.0
2016-Apr-08 09:31N 30°37' E 122°04'0 0.0
2016-Apr-08 08:13N 30°37' E 122°04'0 0.0
2016-Apr-08 06:28N 30°37' E 122°04'0 0.0
2016-Apr-08 05:19N 30°37' E 122°04'0 0.0
2016-Apr-08 03:30N 30°37' E 122°04'1 1.0
2016-Apr-08 02:33N 30°36' E 122°05'1313.3
2016-Apr-08 01:32N 30°33' E 122°20'4 4.1
2016-Apr-08 00:33N 30°33' E 122°24'5 2.5
2016-Apr-07 22:29N 30°30' E 122°29'0 0.0
2016-Apr-07 11:13N 30°29' E 122°29'1111.2
2016-Apr-07 10:13N 30°28' E 122°42'913.3
2016-Apr-07 09:33N 30°21' E 122°48'2512.5
2016-Apr-07 07:32N 29°57' E 122°41'1414.0
2016-Apr-07 06:32N 29°46' E 122°32'1413.7
2016-Apr-07 05:32N 29°47' E 122°16'1111.3
2016-Apr-07 04:33N 29°55' E 122°09'5 4.2
2016-Apr-07 03:27N 29°53' E 122°04'0 0.0
2016-Apr-07 02:33N 29°53' E 122°04'0 0.0
2016-Apr-07 00:27N 29°53' E 122°04'0 0.0
2016-Apr-06 23:27N 29°53' E 122°04'0 0.0
2016-Apr-06 22:27N 29°53' E 122°04'0 0.0
2016-Apr-06 21:15N 29°53' E 122°04'0 0.1
2016-Apr-06 20:33N 29°53' E 122°04'0 0.1
2016-Apr-06 19:33N 29°53' E 122°04'0 0.0
2016-Apr-06 18:33N 29°53' E 122°04'0 0.1
2016-Apr-06 17:33N 29°53' E 122°04'0 0.0
2016-Apr-06 16:27N 29°53' E 122°04'1 1.1
2016-Apr-06 15:33N 29°54' E 122°05'9 9.0
2016-Apr-06 14:33N 29°49' E 122°13'8 8.4
2016-Apr-06 13:33N 29°45' E 122°22'9 9.2
2016-Apr-06 12:33N 29°41' E 122°31'11 9.5
2016-Apr-06 11:25N 29°31' E 122°29'1617.5
2016-Apr-06 10:32N 29°15' E 122°31'32115.2
2016-Apr-05 13:29N 24°43' E 119°21'1815.6
2016-Apr-05 12:20N 24°31' E 119°06'1316.3
2016-Apr-05 11:33N 24°23' E 118°56'3716.5
2016-Apr-05 09:18N 23°59' E 118°24'10414.7
2016-Apr-05 02:15N 22°53' E 116°57'13615.3
2016-Apr-04 17:22N 22°08' E 114°38'1315.7
2016-Apr-04 16:31N 22°07' E 114°24'1413.7
2016-Apr-04 15:30N 22°12' E 114°10'8 8.5
2016-Apr-04 14:33N 22°20' E 114°07'1 0.5
2016-Apr-04 13:26N 22°20' E 114°08'0 0.0
2016-Apr-04 12:26N 22°20' E 114°08'0 0.0
2016-Apr-04 11:23N 22°20' E 114°08'0 0.0
2016-Apr-04 10:32N 22°20' E 114°08'0 0.0
2016-Apr-04 09:32N 22°20' E 114°08'0 0.0
2016-Apr-04 08:32N 22°20' E 114°08'0 0.0
2016-Apr-04 07:29N 22°20' E 114°08'0 0.0
2016-Apr-04 06:32N 22°20' E 114°08'0 0.0
2016-Apr-04 05:29N 22°20' E 114°08'0 0.0
2016-Apr-04 04:32N 22°20' E 114°08'0 0.0
2016-Apr-04 03:32N 22°20' E 114°08'0 0.1
2016-Apr-04 02:33N 22°20' E 114°08'3 3.4
2016-Apr-04 01:33N 22°20' E 114°04'5 4.6
2016-Apr-04 00:28N 22°21' E 113°59'7 0.4
2016-Apr-03 07:33N 22°18' E 114°06'1110.7
2016-Apr-03 06:33N 22°10' E 114°13'8 8.2
2016-Apr-03 05:34N 22°08' E 114°22'1110.6
2016-Apr-03 04:33N 22°08' E 114°33'30011.9
2016-Apr-02 03:25N 22°31' E 119°57'1113.1
2016-Apr-02 02:33N 22°32' E 120°09'9 9.3
2016-Apr-02 01:33N 22°33' E 120°19'1 1.1
2016-Apr-02 00:28N 22°34' E 120°18'0 0.0
2016-Apr-01 23:28N 22°34' E 120°18'0 0.0
2016-Apr-01 22:28N 22°34' E 120°18'0 0.0
2016-Apr-01 21:28N 22°34' E 120°18'0 0.0
2016-Apr-01 20:28N 22°34' E 120°18'0 0.0
2016-Apr-01 19:28N 22°34' E 120°18'0 0.0
2016-Apr-01 18:28N 22°34' E 120°18'2 1.8
2016-Apr-01 17:33N 22°33' E 120°18'2 2.1
2016-Apr-01 16:33N 22°31' E 120°16'0 0.2
2016-Apr-01 15:28N 22°31' E 120°16'0 0.1
2016-Apr-01 14:28N 22°31' E 120°16'0 0.1
2016-Apr-01 13:28N 22°32' E 120°16'1 1.5
2016-Apr-01 12:33N 22°31' E 120°15'1313.1
2016-Apr-01 11:33N 22°42' E 120°07'1413.7
2016-Apr-01 10:31N 22°54' E 119°59'  
Track history (hours):
 
Tides and Currents Weather Stations Pressure Air Temp Water Temp Dewpoint Dewpoint Depression Visibility Wind Speed Wind Dir Waves Ship Positions

Cosco Aden

Last reported at 2016-Apr-09 13:26 UTC. Time now 2016-May-05 12:27 UTC.
Position N 34°08' E 129°35'.
Warning: this ship's position is 25 days out of date.

Length 261 m; draft 12.6 m.

Type: Other ship. MMSI: 477765900.

Date/timePositionNaut miles runAvg speedWind from/ knotsBaromVisibWave heightAir tempDewpointWater temp
2016-Apr-09 13:26N 34°08' E 129°35'1516.6
2016-Apr-09 12:33N 33°58' E 129°23'1818.3
2016-Apr-09 11:33N 33°48' E 129°04'1818.2
2016-Apr-09 10:33N 33°38' E 128°46'1818.2
2016-Apr-09 09:33N 33°29' E 128°27'32918.3
2016-Apr-08 15:31N 30°32' E 122°59'1816.9
2016-Apr-08 14:27N 30°29' E 122°39'1415.0
2016-Apr-08 13:33N 30°32' E 122°23'1010.5
2016-Apr-08 12:33N 30°34' E 122°11'7 4.8
2016-Apr-08 11:04N 30°37' E 122°04'0 0.0
2016-Apr-08 10:04N 30°37' E 122°04'0 0.0
2016-Apr-08 09:31N 30°37' E 122°04'0 0.0
2016-Apr-08 08:13N 30°37' E 122°04'0 0.0
2016-Apr-08 06:28N 30°37' E 122°04'0 0.0
2016-Apr-08 05:19N 30°37' E 122°04'0 0.0
2016-Apr-08 03:30N 30°37' E 122°04'1 1.0
2016-Apr-08 02:33N 30°36' E 122°05'1313.3
2016-Apr-08 01:32N 30°33' E 122°20'4 4.1
2016-Apr-08 00:33N 30°33' E 122°24'5 2.5
2016-Apr-07 22:29N 30°30' E 122°29'0 0.0
2016-Apr-07 11:13N 30°29' E 122°29'1111.2
2016-Apr-07 10:13N 30°28' E 122°42'913.3
2016-Apr-07 09:33N 30°21' E 122°48'2512.5
2016-Apr-07 07:32N 29°57' E 122°41'1414.0
2016-Apr-07 06:32N 29°46' E 122°32'1413.7
2016-Apr-07 05:32N 29°47' E 122°16'1111.3
2016-Apr-07 04:33N 29°55' E 122°09'5 4.2
2016-Apr-07 03:27N 29°53' E 122°04'0 0.0
2016-Apr-07 02:33N 29°53' E 122°04'0 0.0
2016-Apr-07 00:27N 29°53' E 122°04'0 0.0
2016-Apr-06 23:27N 29°53' E 122°04'0 0.0
2016-Apr-06 22:27N 29°53' E 122°04'0 0.0
2016-Apr-06 21:15N 29°53' E 122°04'0 0.1
2016-Apr-06 20:33N 29°53' E 122°04'0 0.1
2016-Apr-06 19:33N 29°53' E 122°04'0 0.0
2016-Apr-06 18:33N 29°53' E 122°04'0 0.1
2016-Apr-06 17:33N 29°53' E 122°04'0 0.0
2016-Apr-06 16:27N 29°53' E 122°04'1 1.1
2016-Apr-06 15:33N 29°54' E 122°05'9 9.0
2016-Apr-06 14:33N 29°49' E 122°13'8 8.4
2016-Apr-06 13:33N 29°45' E 122°22'9 9.2
2016-Apr-06 12:33N 29°41' E 122°31'11 9.5
2016-Apr-06 11:25N 29°31' E 122°29'1617.5
2016-Apr-06 10:32N 29°15' E 122°31'32115.2
2016-Apr-05 13:29N 24°43' E 119°21'1815.6
2016-Apr-05 12:20N 24°31' E 119°06'1316.3
2016-Apr-05 11:33N 24°23' E 118°56'3716.5
2016-Apr-05 09:18N 23°59' E 118°24'10414.7
2016-Apr-05 02:15N 22°53' E 116°57'13615.3
2016-Apr-04 17:22N 22°08' E 114°38'1315.7
2016-Apr-04 16:31N 22°07' E 114°24'1413.7
2016-Apr-04 15:30N 22°12' E 114°10'8 8.5
2016-Apr-04 14:33N 22°20' E 114°07'1 0.5
2016-Apr-04 13:26N 22°20' E 114°08'0 0.0
2016-Apr-04 12:26N 22°20' E 114°08'0 0.0
2016-Apr-04 11:23N 22°20' E 114°08'0 0.0
2016-Apr-04 10:32N 22°20' E 114°08'0 0.0
2016-Apr-04 09:32N 22°20' E 114°08'0 0.0
2016-Apr-04 08:32N 22°20' E 114°08'0 0.0
2016-Apr-04 07:29N 22°20' E 114°08'0 0.0
2016-Apr-04 06:32N 22°20' E 114°08'0 0.0
2016-Apr-04 05:29N 22°20' E 114°08'0 0.0
2016-Apr-04 04:32N 22°20' E 114°08'0 0.0
2016-Apr-04 03:32N 22°20' E 114°08'0 0.1
2016-Apr-04 02:33N 22°20' E 114°08'3 3.4
2016-Apr-04 01:33N 22°20' E 114°04'5 4.6
2016-Apr-04 00:28N 22°21' E 113°59'7 0.4
2016-Apr-03 07:33N 22°18' E 114°06'1110.7
2016-Apr-03 06:33N 22°10' E 114°13'8 8.2
2016-Apr-03 05:34N 22°08' E 114°22'1110.6
2016-Apr-03 04:33N 22°08' E 114°33'30011.9
2016-Apr-02 03:25N 22°31' E 119°57'1113.1
2016-Apr-02 02:33N 22°32' E 120°09'9 9.3
2016-Apr-02 01:33N 22°33' E 120°19'1 1.1
2016-Apr-02 00:28N 22°34' E 120°18'0 0.0
2016-Apr-01 23:28N 22°34' E 120°18'0 0.0
2016-Apr-01 22:28N 22°34' E 120°18'0 0.0
2016-Apr-01 21:28N 22°34' E 120°18'0 0.0
2016-Apr-01 20:28N 22°34' E 120°18'0 0.0
2016-Apr-01 19:28N 22°34' E 120°18'0 0.0
2016-Apr-01 18:28N 22°34' E 120°18'2 1.8
2016-Apr-01 17:33N 22°33' E 120°18'2 2.1
2016-Apr-01 16:33N 22°31' E 120°16'0 0.2
2016-Apr-01 15:28N 22°31' E 120°16'0 0.1
2016-Apr-01 14:28N 22°31' E 120°16'0 0.1
2016-Apr-01 13:28N 22°32' E 120°16'1 1.5
2016-Apr-01 12:33N 22°31' E 120°15'1313.1
2016-Apr-01 11:33N 22°42' E 120°07'1413.7
2016-Apr-01 10:31N 22°54' E 119°59'  

Dump ship's entire track history